Time,TemperatureF,DewpointF,PressureIn,WindDirection,WindDirectionDegrees,WindSpeedMPH,WindSpeedGustMPH,Humidity,HourlyPrecipIn,Conditions,Clouds,dailyrainin,SoftwareType,DateUTC
2013-02-18 00:00:00,52.3,48.2,29.90,SSE,155,3.5,3.5,86,0.00,CLR,,0.00,WeatherDisplay:10.37,2013-02-17 23:00:00,
2013-02-18 00:05:00,52.3,48.2,29.90,SSE,150,5.0,5.0,86,0.00,CLR,,0.00,WeatherDisplay:10.37,2013-02-17 23:05:00,
2013-02-18 00:10:00,52.3,48.2,29.90,SSE,149,4.0,4.0,86,0.00,CLR,,0.00,WeatherDisplay:10.37,2013-02-17 23:10:00,
2013-02-18 00:15:00,52.3,48.2,29.90,SE,143,3.5,3.5,86,0.00,CLR,,0.00,WeatherDisplay:10.37,2013-02-17 23:15:00,
2013-02-18 00:20:00,52.3,48.2,29.90,SE,140,4.6,4.6,86,0.00,CLR,,0.00,WeatherDisplay:10.37,2013-02-17 23:20:00,
2013-02-18 00:25:00,52.3,48.2,29.90,SSE,164,4.6,4.6,86,0.00,CLR,,0.00,WeatherDisplay:10.37,2013-02-17 23:25:00,
2013-02-18 00:30:00,52.3,48.2,29.90,SSE,154,4.6,4.6,86,0.00,CLR,,0.00,WeatherDisplay:10.37,2013-02-17 23:30:00,
2013-02-18 00:35:00,52.2,48.1,29.90,SSE,158,3.5,3.5,86,0.00,CLR,,0.00,WeatherDisplay:10.37,2013-02-17 23:35:00,
2013-02-18 00:40:00,52.2,48.1,29.90,SSE,158,4.0,4.0,86,0.00,CLR,,0.00,WeatherDisplay:10.37,2013-02-17 23:40:00,
2013-02-18 00:45:00,52.3,48.2,29.89,SSE,159,3.5,3.5,86,0.00,CLR,,0.00,WeatherDisplay:10.37,2013-02-17 23:45:00,
2013-02-18 00:50:00,52.2,48.1,29.89,SE,146,5.8,5.8,86,0.00,CLR,,0.00,WeatherDisplay:10.37,2013-02-17 23:50:00,
2013-02-18 00:55:00,52.2,48.1,29.89,SSE,158,6.0,6.0,86,0.00,CLR,,0.00,WeatherDisplay:10.37,2013-02-17 23:55:00,
2013-02-18 01:00:00,52.3,48.2,29.89,SE,133,4.6,4.6,86,0.00,CLR,,0.00,WeatherDisplay:10.37,2013-02-18 00:00:00,
2013-02-18 01:05:00,52.2,48.1,29.89,SSE,149,3.5,3.5,86,0.00,CLR,,0.00,WeatherDisplay:10.37,2013-02-18 00:05:00,
2013-02-18 01:10:00,52.2,48.1,29.89,SSE,147,4.0,4.0,86,0.00,CLR,,0.00,WeatherDisplay:10.37,2013-02-18 00:10:00,
2013-02-18 01:15:00,52.2,48.1,29.89,SSE,156,4.6,4.6,86,0.00,CLR,,0.00,WeatherDisplay:10.37,2013-02-18 00:15:00,
2013-02-18 01:20:00,52.3,48.2,29.88,SSE,158,5.8,5.8,86,0.00,CLR,,0.00,WeatherDisplay:10.37,2013-02-18 00:20:00,
2013-02-18 01:25:00,52.3,48.2,29.88,SSE,159,3.5,3.5,86,0.00,CLR,,0.00,WeatherDisplay:10.37,2013-02-18 00:25:00,
2013-02-18 01:30:00,52.4,48.3,29.88,SSE,167,3.5,3.5,86,0.00,CLR,,0.00,WeatherDisplay:10.37,2013-02-18 00:30:00,
2013-02-18 01:35:00,52.4,48.3,29.88,South,171,3.5,3.5,86,0.00,CLR,,0.00,WeatherDisplay:10.37,2013-02-18 00:35:00,
2013-02-18 01:40:00,52.4,48.3,29.88,SSE,156,5.8,5.8,86,0.00,CLR,,0.00,WeatherDisplay:10.37,2013-02-18 00:40:00,
2013-02-18 01:45:00,52.5,48.4,29.88,South,172,4.6,4.6,86,0.00,CLR,,0.00,WeatherDisplay:10.37,2013-02-18 00:45:00,
2013-02-18 01:50:00,52.5,48.4,29.88,South,169,4.6,4.6,86,0.00,CLR,,0.00,WeatherDisplay:10.37,2013-02-18 00:50:00,
2013-02-18 01:55:00,52.6,48.5,29.88,SSE,164,4.6,4.6,86,0.00,CLR,,0.00,WeatherDisplay:10.37,2013-02-18 00:55:00,
2013-02-18 02:00:00,52.5,48.4,29.88,South,170,4.6,4.6,86,0.00,CLR,,0.00,WeatherDisplay:10.37,2013-02-18 01:00:00,
2013-02-18 02:05:00,52.5,48.4,29.87,SSE,158,3.5,3.5,86,0.00,CLR,,0.00,WeatherDisplay:10.37,2013-02-18 01:05:00,
2013-02-18 02:10:00,52.4,48.3,29.87,SSE,158,5.8,5.8,86,0.00,CLR,,0.00,WeatherDisplay:10.37,2013-02-18 01:10:00,
2013-02-18 02:15:00,52.4,48.3,29.87,South,169,5.8,5.8,86,0.00,CLR,,0.00,WeatherDisplay:10.37,2013-02-18 01:15:00,
2013-02-18 02:20:00,52.4,48.3,29.87,SSE,167,5.8,5.8,86,0.00,CLR,,0.00,WeatherDisplay:10.37,2013-02-18 01:20:00,
2013-02-18 02:25:00,52.4,48.3,29.87,SSE,156,4.6,4.6,86,0.00,CLR,,0.00,WeatherDisplay:10.37,2013-02-18 01:25:00,
2013-02-18 02:30:00,52.3,48.2,29.87,South,170,4.6,4.6,86,0.00,CLR,,0.00,WeatherDisplay:10.37,2013-02-18 01:30:00,
2013-02-18 02:35:00,52.3,48.2,29.86,SSE,160,3.5,3.5,86,0.00,CLR,,0.00,WeatherDisplay:10.37,2013-02-18 01:35:00,
2013-02-18 02:40:00,52.3,48.2,29.86,SSE,160,3.5,3.5,86,0.00,CLR,,0.00,WeatherDisplay:10.37,2013-02-18 01:40:00,
2013-02-18 02:45:00,52.3,48.2,29.86,SSE,162,6.9,6.9,86,0.00,CLR,,0.00,WeatherDisplay:10.37,2013-02-18 01:45:00,
2013-02-18 02:50:00,52.4,48.3,29.86,SSE,147,5.0,5.0,86,0.00,CLR,,0.00,WeatherDisplay:10.37,2013-02-18 01:50:00,
2013-02-18 02:55:00,52.3,48.2,29.86,SSE,150,4.0,4.0,86,0.00,CLR,,0.00,WeatherDisplay:10.37,2013-02-18 01:55:00,
2013-02-18 03:00:00,52.3,48.2,29.85,SSE,154,3.5,3.5,86,0.00,CLR,,0.00,WeatherDisplay:10.37,2013-02-18 02:00:00,
2013-02-18 03:05:00,52.4,48.3,29.85,South,175,3.5,3.5,86,0.00,CLR,,0.00,WeatherDisplay:10.37,2013-02-18 02:05:00,
2013-02-18 03:10:00,52.4,48.3,29.85,SSE,160,3.5,3.5,86,0.00,CLR,,0.00,WeatherDisplay:10.37,2013-02-18 02:10:00,
2013-02-18 03:15:00,52.4,48.3,29.85,SE,144,3.5,3.5,86,0.00,CLR,,0.00,WeatherDisplay:10.37,2013-02-18 02:15:00,
2013-02-18 03:20:00,52.4,48.3,29.85,SSE,163,3.5,3.5,86,0.00,CLR,,0.00,WeatherDisplay:10.37,2013-02-18 02:20:00,
2013-02-18 03:25:00,52.4,48.3,29.85,SSE,157,3.5,3.5,86,0.00,CLR,,0.00,WeatherDisplay:10.37,2013-02-18 02:25:00,
2013-02-18 03:30:00,52.4,48.3,29.84,SSE,156,3.5,3.5,86,0.00,CLR,,0.00,WeatherDisplay:10.37,2013-02-18 02:30:00,
2013-02-18 03:35:00,52.5,48.4,29.84,South,172,3.5,3.5,86,0.00,CLR,,0.00,WeatherDisplay:10.37,2013-02-18 02:35:00,
2013-02-18 03:40:00,52.5,48.7,29.84,SSE,167,3.5,3.5,87,0.00,CLR,,0.00,WeatherDisplay:10.37,2013-02-18 02:40:00,
2013-02-18 03:45:00,52.5,48.7,29.84,SSE,155,3.5,3.5,87,0.00,CLR,,0.00,WeatherDisplay:10.37,2013-02-18 02:45:00,
2013-02-18 03:50:00,52.5,48.7,29.84,SSE,154,2.3,2.3,87,0.00,CLR,,0.00,WeatherDisplay:10.37,2013-02-18 02:50:00,
2013-02-18 03:55:00,52.4,48.6,29.84,SE,145,2.3,2.3,87,0.00,CLR,,0.00,WeatherDisplay:10.37,2013-02-18 02:55:00,
2013-02-18 04:00:00,52.4,48.6,29.84,SSE,152,3.5,3.5,87,0.00,CLR,,0.00,WeatherDisplay:10.37,2013-02-18 03:00:00,
2013-02-18 04:05:00,52.4,48.6,29.84,SSE,160,3.5,3.5,87,0.00,CLR,,0.00,WeatherDisplay:10.37,2013-02-18 03:05:00,
2013-02-18 04:10:00,52.4,48.9,29.84,SSE,158,3.5,3.5,88,0.00,CLR,,0.00,WeatherDisplay:10.37,2013-02-18 03:10:00,
2013-02-18 04:15:00,52.5,49.0,29.84,SSE,157,3.5,3.5,88,0.00,CLR,,0.00,WeatherDisplay:10.37,2013-02-18 03:15:00,
2013-02-18 04:20:00,52.5,49.0,29.84,SSE,152,2.3,2.3,88,0.00,CLR,,0.00,WeatherDisplay:10.37,2013-02-18 03:20:00,
2013-02-18 04:25:00,52.5,49.0,29.84,South,182,3.5,3.5,88,0.00,CLR,,0.00,WeatherDisplay:10.37,2013-02-18 03:25:00,
2013-02-18 04:30:00,52.5,49.0,29.84,South,172,3.5,3.5,88,0.00,CLR,,0.00,WeatherDisplay:10.37,2013-02-18 03:30:00,
2013-02-18 04:35:00,52.5,49.0,29.84,South,178,2.3,2.3,88,0.00,CLR,,0.00,WeatherDisplay:10.37,2013-02-18 03:35:00,
2013-02-18 04:40:00,52.6,49.4,29.84,South,179,2.3,2.3,89,0.00,CLR,,0.00,WeatherDisplay:10.37,2013-02-18 03:40:00,
2013-02-18 04:45:00,52.6,49.4,29.84,South,177,2.3,2.3,89,0.00,CLR,,0.00,WeatherDisplay:10.37,2013-02-18 03:45:00,
2013-02-18 04:50:00,52.6,49.4,29.84,South,177,1.1,1.1,89,0.00,CLR,,0.00,WeatherDisplay:10.37,2013-02-18 03:50:00,
2013-02-18 04:55:00,52.6,49.4,29.84,South,177,2.3,2.3,89,0.00,CLR,,0.00,WeatherDisplay:10.37,2013-02-18 03:55:00,
2013-02-18 05:00:00,52.6,49.4,29.84,South,177,2.3,2.3,89,0.00,CLR,,0.00,WeatherDisplay:10.37,2013-02-18 04:00:00,
2013-02-18 05:05:00,52.6,49.4,29.84,South,185,2.3,2.3,89,0.00,CLR,,0.00,WeatherDisplay:10.37,2013-02-18 04:05:00,
2013-02-18 05:10:00,52.6,49.4,29.84,South,185,2.3,2.3,89,0.00,CLR,,0.00,WeatherDisplay:10.37,2013-02-18 04:10:00,
2013-02-18 05:15:00,52.6,49.4,29.84,South,185,3.5,3.5,89,0.00,CLR,,0.00,WeatherDisplay:10.37,2013-02-18 04:15:00,
2013-02-18 05:20:00,52.6,49.4,29.84,South,184,2.3,2.3,89,0.00,CLR,,0.00,WeatherDisplay:10.37,2013-02-18 04:20:00,
2013-02-18 05:25:00,52.6,49.4,29.84,South,185,1.1,1.1,89,0.00,CLR,,0.00,WeatherDisplay:10.37,2013-02-18 04:25:00,
2013-02-18 05:30:00,52.6,49.4,29.84,South,185,1.1,1.1,89,0.00,CLR,,0.00,WeatherDisplay:10.37,2013-02-18 04:30:00,
2013-02-18 05:35:00,52.6,49.4,29.84,South,185,2.3,2.3,89,0.00,CLR,,0.00,WeatherDisplay:10.37,2013-02-18 04:35:00,
2013-02-18 05:40:00,52.6,49.4,29.84,South,185,2.3,2.3,89,0.00,CLR,,0.00,WeatherDisplay:10.37,2013-02-18 04:40:00,
2013-02-18 05:45:00,52.6,49.4,29.84,South,185,3.5,3.5,89,0.00,CLR,,0.00,WeatherDisplay:10.37,2013-02-18 04:45:00,
2013-02-18 05:50:00,52.6,49.4,29.84,South,185,3.5,3.5,89,0.00,CLR,,0.00,WeatherDisplay:10.37,2013-02-18 04:50:00,
2013-02-18 05:55:00,52.6,49.4,29.84,South,185,2.3,2.3,89,0.00,CLR,,0.00,WeatherDisplay:10.37,2013-02-18 04:55:00,
2013-02-18 06:00:00,52.6,49.4,29.84,South,186,2.3,2.3,89,0.00,CLR,,0.00,WeatherDisplay:10.37,2013-02-18 05:00:00,
2013-02-18 06:05:00,52.5,49.4,29.84,SSW,208,3.5,3.5,89,0.00,CLR,,0.00,WeatherDisplay:10.37,2013-02-18 05:05:00,
2013-02-18 06:10:00,52.5,49.4,29.84,SW,230,3.5,3.5,89,0.00,CLR,,0.00,WeatherDisplay:10.37,2013-02-18 05:10:00,
2013-02-18 06:15:00,52.4,49.6,29.84,WSW,243,3.5,3.5,90,0.00,CLR,,0.00,WeatherDisplay:10.37,2013-02-18 05:15:00,
2013-02-18 06:20:00,52.3,49.5,29.84,WSW,252,4.0,4.0,90,0.00,CLR,,0.00,WeatherDisplay:10.37,2013-02-18 05:20:00,
2013-02-18 06:25:00,52.2,49.4,29.84,West,262,3.5,3.5,90,0.00,CLR,,0.00,WeatherDisplay:10.37,2013-02-18 05:25:00,
2013-02-18 06:30:00,52.2,49.4,29.84,West,271,4.6,4.6,90,0.00,CLR,,0.00,WeatherDisplay:10.37,2013-02-18 05:30:00,
2013-02-18 06:35:00,52.0,48.9,29.84,West,274,3.5,3.5,89,0.00,CLR,,0.00,WeatherDisplay:10.37,2013-02-18 05:35:00,
2013-02-18 06:40:00,51.9,48.8,29.84,West,275,4.6,4.6,89,0.00,CLR,,0.00,WeatherDisplay:10.37,2013-02-18 05:40:00,
2013-02-18 06:45:00,51.9,48.5,29.84,WNW,284,3.5,3.5,88,0.00,CLR,,0.00,WeatherDisplay:10.37,2013-02-18 05:45:00,
2013-02-18 06:50:00,51.9,48.5,29.84,WNW,282,3.5,3.5,88,0.00,CLR,,0.00,WeatherDisplay:10.37,2013-02-18 05:50:00,
2013-02-18 06:55:00,52.0,48.6,29.84,WNW,292,3.5,3.5,88,0.00,CLR,,0.00,WeatherDisplay:10.37,2013-02-18 05:55:00,
2013-02-18 07:00:00,52.0,48.6,29.84,WNW,294,3.5,3.5,88,0.00,CLR,,0.00,WeatherDisplay:10.37,2013-02-18 06:00:00,
2013-02-18 07:05:00,51.9,48.5,29.84,NW,312,4.6,4.6,88,0.00,CLR,,0.00,WeatherDisplay:10.37,2013-02-18 06:05:00,
2013-02-18 07:10:00,51.9,48.5,29.84,NW,311,3.5,3.5,88,0.00,CLR,,0.00,WeatherDisplay:10.37,2013-02-18 06:10:00,
2013-02-18 07:15:00,52.0,48.6,29.84,NW,314,4.6,4.6,88,0.00,CLR,,0.00,WeatherDisplay:10.37,2013-02-18 06:15:00,
2013-02-18 07:20:00,52.0,48.3,29.84,NW,322,5.0,5.0,87,0.00,CLR,,0.00,WeatherDisplay:10.37,2013-02-18 06:20:00,
2013-02-18 07:25:00,52.2,48.4,29.85,NW,326,6.0,6.0,87,0.00,CLR,,0.00,WeatherDisplay:10.37,2013-02-18 06:25:00,
2013-02-18 07:30:00,52.2,48.4,29.85,NNW,332,5.8,5.8,87,0.00,CLR,,0.00,WeatherDisplay:10.37,2013-02-18 06:30:00,
2013-02-18 07:35:00,52.1,48.3,29.85,NW,320,4.6,4.6,87,0.00,CLR,,0.00,WeatherDisplay:10.37,2013-02-18 06:35:00,
2013-02-18 07:40:00,52.1,48.3,29.85,NW,314,4.0,4.0,87,0.00,CLR,,0.00,WeatherDisplay:10.37,2013-02-18 06:40:00,
2013-02-18 07:45:00,52.2,48.4,29.85,NNW,327,4.6,4.6,87,0.00,CLR,,0.00,WeatherDisplay:10.37,2013-02-18 06:45:00,
2013-02-18 07:50:00,52.3,48.5,29.85,NNW,329,4.0,4.0,87,0.00,CLR,,0.00,WeatherDisplay:10.37,2013-02-18 06:50:00,
2013-02-18 07:55:00,52.4,48.3,29.85,NW,318,4.6,4.6,86,0.00,CLR,,0.00,WeatherDisplay:10.37,2013-02-18 06:55:00,
2013-02-18 08:00:00,52.4,48.3,29.85,NW,324,4.6,4.6,86,0.00,CLR,,0.00,WeatherDisplay:10.37,2013-02-18 07:00:00,
2013-02-18 08:05:00,52.4,48.3,29.86,NW,326,3.5,3.5,86,0.00,CLR,,0.00,WeatherDisplay:10.37,2013-02-18 07:05:00,
2013-02-18 08:10:00,52.4,48.3,29.86,NW,321,3.5,3.5,86,0.00,CLR,,0.00,WeatherDisplay:10.37,2013-02-18 07:10:00,
2013-02-18 08:15:00,52.3,48.5,29.86,NNW,328,3.5,3.5,87,0.00,CLR,,0.00,WeatherDisplay:10.37,2013-02-18 07:15:00,
2013-02-18 08:20:00,52.4,48.3,29.86,NW,324,3.5,3.8,86,0.00,CLR,,0.00,WeatherDisplay:10.37,2013-02-18 07:20:00,
2013-02-18 08:25:00,52.5,48.4,29.86,NW,321,3.5,3.5,86,0.00,CLR,,0.00,WeatherDisplay:10.37,2013-02-18 07:25:00,
2013-02-18 08:30:00,52.5,48.4,29.86,NW,320,3.5,3.5,86,0.00,CLR,,0.00,WeatherDisplay:10.37,2013-02-18 07:30:00,
2013-02-18 08:35:00,52.5,48.4,29.86,NNW,329,3.5,3.5,86,0.00,CLR,,0.00,WeatherDisplay:10.37,2013-02-18 07:35:00,
2013-02-18 08:40:00,52.5,48.4,29.87,NNW,330,4.6,4.6,86,0.00,CLR,,0.00,WeatherDisplay:10.37,2013-02-18 07:40:00,
2013-02-18 08:45:00,52.4,48.3,29.87,NW,326,4.0,4.0,86,0.00,CLR,,0.00,WeatherDisplay:10.37,2013-02-18 07:45:00,
2013-02-18 08:50:00,52.5,48.4,29.86,NW,325,4.6,4.6,86,0.00,CLR,,0.00,WeatherDisplay:10.37,2013-02-18 07:50:00,
2013-02-18 08:55:00,52.5,48.4,29.87,NW,314,5.8,5.8,86,0.00,CLR,,0.00,WeatherDisplay:10.37,2013-02-18 07:55:00,
2013-02-18 09:00:00,52.6,48.5,29.87,WNW,296,4.6,4.6,86,0.00,CLR,,0.00,WeatherDisplay:10.37,2013-02-18 08:00:00,
2013-02-18 09:05:00,52.7,48.6,29.87,NW,314,4.6,4.6,86,0.00,CLR,,0.00,WeatherDisplay:10.37,2013-02-18 08:05:00,
2013-02-18 09:10:00,52.8,48.7,29.87,NW,311,6.0,6.0,86,0.00,CLR,,0.00,WeatherDisplay:10.37,2013-02-18 08:10:00,
2013-02-18 09:15:00,52.9,48.8,29.87,NNW,347,5.8,5.8,86,0.00,CLR,,0.00,WeatherDisplay:10.37,2013-02-18 08:15:00,
2013-02-18 09:20:00,53.0,48.6,29.87,NNW,343,7.0,7.0,85,0.00,CLR,,0.00,WeatherDisplay:10.37,2013-02-18 08:20:00,
2013-02-18 09:25:00,53.1,49.0,29.87,NW,322,5.8,5.8,86,0.00,CLR,,0.00,WeatherDisplay:10.37,2013-02-18 08:25:00,
2013-02-18 09:30:00,53.1,49.0,29.87,NNW,347,6.9,6.9,86,0.00,CLR,,0.00,WeatherDisplay:10.37,2013-02-18 08:30:00,
2013-02-18 09:35:00,53.1,49.0,29.87,NNW,332,6.9,6.9,86,0.00,CLR,,0.00,WeatherDisplay:10.37,2013-02-18 08:35:00,
2013-02-18 09:40:00,53.2,49.1,29.87,NW,319,5.8,5.8,86,0.00,CLR,,0.00,WeatherDisplay:10.37,2013-02-18 08:40:00,
2013-02-18 09:45:00,53.2,48.8,29.87,NNW,335,5.8,5.8,85,0.00,CLR,,0.00,WeatherDisplay:10.37,2013-02-18 08:45:00,
2013-02-18 09:50:00,53.3,48.6,29.87,NW,312,5.8,5.8,84,0.00,CLR,,0.00,WeatherDisplay:10.37,2013-02-18 08:50:00,
2013-02-18 09:55:00,53.5,48.5,29.87,NNW,329,4.0,4.0,83,0.00,CLR,,0.00,WeatherDisplay:10.37,2013-02-18 08:55:00,
2013-02-18 10:00:00,53.8,48.8,29.87,NNW,330,3.5,3.5,83,0.00,CLR,,0.00,WeatherDisplay:10.37,2013-02-18 09:00:00,
2013-02-18 10:05:00,54.1,48.7,29.87,WNW,289,3.5,3.5,82,0.00,CLR,,0.00,WeatherDisplay:10.37,2013-02-18 09:05:00,
2013-02-18 10:10:00,54.3,48.6,29.87,NNW,339,6.9,6.9,81,0.00,CLR,,0.00,WeatherDisplay:10.37,2013-02-18 09:10:00,
2013-02-18 10:15:00,54.3,48.6,29.87,North,354,3.5,3.5,81,0.00,CLR,,0.00,WeatherDisplay:10.37,2013-02-18 09:15:00,
2013-02-18 10:20:00,54.4,48.7,29.88,North,354,3.5,3.5,81,0.00,CLR,,0.00,WeatherDisplay:10.37,2013-02-18 09:20:00,
2013-02-18 10:25:00,54.7,48.6,29.88,NNW,342,1.1,0.0,80,0.00,CLR,,0.00,WeatherDisplay:10.37,2013-02-18 09:25:00,
2013-02-18 10:30:00,55.2,48.8,29.88,NW,325,3.5,3.5,79,0.00,CLR,,0.00,WeatherDisplay:10.37,2013-02-18 09:30:00,
2013-02-18 10:35:00,55.7,48.6,29.88,NE,35,1.1,1.1,77,0.00,CLR,,0.00,WeatherDisplay:10.37,2013-02-18 09:35:00,
2013-02-18 10:40:00,56.3,48.8,29.88,NNE,33,1.1,0.0,76,0.00,CLR,,0.00,WeatherDisplay:10.37,2013-02-18 09:40:00,
2013-02-18 10:45:00,56.8,48.6,29.88,NNW,340,3.5,3.5,74,0.00,CLR,,0.00,WeatherDisplay:10.37,2013-02-18 09:45:00,
2013-02-18 10:50:00,57.0,48.4,29.88,NNE,32,1.1,1.1,73,0.00,CLR,,0.00,WeatherDisplay:10.37,2013-02-18 09:50:00,
2013-02-18 10:55:00,57.2,49.3,29.88,SSE,150,1.1,0.0,75,0.00,CLR,,0.00,WeatherDisplay:10.37,2013-02-18 09:55:00,
2013-02-18 11:00:00,57.2,49.0,29.88,SSE,166,0.0,0.0,74,0.00,CLR,,0.00,WeatherDisplay:10.37,2013-02-18 10:00:00,
2013-02-18 11:05:00,57.2,48.6,29.88,SW,220,0.0,0.0,73,0.00,CLR,,0.00,WeatherDisplay:10.37,2013-02-18 10:05:00,
2013-02-18 11:10:00,57.4,49.2,29.88,SW,220,1.1,1.1,74,0.00,CLR,,0.00,WeatherDisplay:10.37,2013-02-18 10:10:00,
2013-02-18 11:15:00,57.5,48.9,29.88,SSW,205,1.1,1.1,73,0.00,CLR,,0.00,WeatherDisplay:10.37,2013-02-18 10:15:00,
2013-02-18 11:20:00,57.3,49.1,29.88,East,82,3.5,3.5,74,0.00,CLR,,0.00,WeatherDisplay:10.37,2013-02-18 10:20:00,
2013-02-18 11:25:00,57.1,49.6,29.88,ESE,118,2.3,2.3,76,0.00,CLR,,0.00,WeatherDisplay:10.37,2013-02-18 10:25:00,
2013-02-18 11:30:00,57.0,49.5,29.88,SE,137,3.5,3.5,76,0.00,CLR,,0.00,WeatherDisplay:10.37,2013-02-18 10:30:00,
2013-02-18 11:35:00,56.9,49.8,29.88,SSE,158,3.5,3.5,77,0.00,CLR,,0.00,WeatherDisplay:10.37,2013-02-18 10:35:00,
2013-02-18 11:40:00,56.8,49.7,29.88,ESE,104,3.5,3.5,77,0.00,CLR,,0.00,WeatherDisplay:10.37,2013-02-18 10:40:00,
2013-02-18 11:45:00,56.9,50.1,29.88,SE,135,2.0,2.0,78,0.00,CLR,,0.00,WeatherDisplay:10.37,2013-02-18 10:45:00,
2013-02-18 11:50:00,56.9,49.8,29.88,ESE,115,3.5,3.5,77,0.00,CLR,,0.00,WeatherDisplay:10.37,2013-02-18 10:50:00,
2013-02-18 11:55:00,56.8,49.3,29.88,SSE,149,1.1,1.1,76,0.00,CLR,,0.00,WeatherDisplay:10.37,2013-02-18 10:55:00,
2013-02-18 12:00:00,56.9,49.8,29.88,SSE,158,3.5,3.5,77,0.00,CLR,,0.00,WeatherDisplay:10.37,2013-02-18 11:00:00,
2013-02-18 12:05:00,56.8,50.0,29.88,SSE,155,1.1,1.1,78,0.00,CLR,,0.00,WeatherDisplay:10.37,2013-02-18 11:05:00,
2013-02-18 12:10:00,56.9,49.8,29.88,ESE,121,3.5,3.5,77,0.00,CLR,,0.00,WeatherDisplay:10.37,2013-02-18 11:10:00,
2013-02-18 12:15:00,56.9,50.1,29.88,East,100,4.6,4.6,78,0.00,CLR,,0.00,WeatherDisplay:10.37,2013-02-18 11:15:00,
2013-02-18 12:20:00,56.9,49.8,29.88,SSE,152,5.8,5.8,77,0.00,CLR,,0.00,WeatherDisplay:10.37,2013-02-18 11:20:00,
2013-02-18 12:25:00,57.1,50.3,29.88,SE,136,3.5,3.5,78,0.00,CLR,,0.00,WeatherDisplay:10.37,2013-02-18 11:25:00,
2013-02-18 12:30:00,57.4,49.5,29.87,SE,125,6.9,6.9,75,0.00,CLR,,0.00,WeatherDisplay:10.37,2013-02-18 11:30:00,
2013-02-18 12:35:00,57.3,49.4,29.87,ESE,116,4.6,4.6,75,0.00,CLR,,0.00,WeatherDisplay:10.37,2013-02-18 11:35:00,
2013-02-18 12:40:00,57.2,49.3,29.87,SE,141,3.5,3.5,75,0.00,CLR,,0.00,WeatherDisplay:10.37,2013-02-18 11:40:00,
2013-02-18 12:45:00,57.4,49.5,29.87,ESE,120,2.3,2.3,75,0.00,CLR,,0.00,WeatherDisplay:10.37,2013-02-18 11:45:00,
2013-02-18 12:50:00,57.9,49.7,29.87,ESE,116,3.5,3.5,74,0.00,CLR,,0.00,WeatherDisplay:10.37,2013-02-18 11:50:00,
2013-02-18 12:55:00,58.5,49.9,29.87,East,91,5.8,5.8,73,0.00,CLR,,0.00,WeatherDisplay:10.37,2013-02-18 11:55:00,
2013-02-18 13:00:00,58.3,48.9,29.87,East,91,9.2,9.2,71,0.00,CLR,,0.00,WeatherDisplay:10.37,2013-02-18 12:00:00,
2013-02-18 13:05:00,57.9,49.3,29.87,East,87,6.9,6.9,73,0.00,CLR,,0.00,WeatherDisplay:10.37,2013-02-18 12:05:00,
2013-02-18 13:10:00,57.5,48.9,29.87,ESE,118,4.6,4.6,73,0.00,CLR,,0.00,WeatherDisplay:10.37,2013-02-18 12:10:00,
2013-02-18 13:15:00,57.2,48.6,29.87,East,98,2.0,2.0,73,0.00,CLR,,0.00,WeatherDisplay:10.37,2013-02-18 12:15:00,
2013-02-18 13:20:00,57.3,49.1,29.87,East,99,2.3,2.3,74,0.00,CLR,,0.00,WeatherDisplay:10.37,2013-02-18 12:20:00,
2013-02-18 13:25:00,57.4,49.2,29.87,SE,130,3.5,3.5,74,0.00,CLR,,0.00,WeatherDisplay:10.37,2013-02-18 12:25:00,
2013-02-18 13:30:00,57.3,49.1,29.87,NNE,25,6.9,6.9,74,0.00,CLR,,0.00,WeatherDisplay:10.37,2013-02-18 12:30:00,
2013-02-18 13:35:00,57.0,49.2,29.87,ESE,108,4.6,4.6,75,0.00,CLR,,0.00,WeatherDisplay:10.37,2013-02-18 12:35:00,
2013-02-18 13:40:00,56.9,49.1,29.87,ESE,106,3.5,3.5,75,0.00,CLR,,0.00,WeatherDisplay:10.37,2013-02-18 12:40:00,
2013-02-18 13:45:00,56.9,49.1,29.87,ESE,120,3.5,3.5,75,0.00,CLR,,0.00,WeatherDisplay:10.37,2013-02-18 12:45:00,
2013-02-18 13:50:00,57.1,49.2,29.87,SE,127,4.6,4.6,75,0.00,CLR,,0.00,WeatherDisplay:10.37,2013-02-18 12:50:00,
2013-02-18 13:55:00,57.2,49.3,29.87,SSE,153,4.6,4.6,75,0.00,CLR,,0.00,WeatherDisplay:10.37,2013-02-18 12:55:00,
2013-02-18 14:00:00,57.1,49.6,29.86,ESE,119,3.5,3.5,76,0.00,CLR,,0.00,WeatherDisplay:10.37,2013-02-18 13:00:00,
2013-02-18 14:05:00,57.0,49.2,29.86,South,185,4.6,4.6,75,0.00,CLR,,0.00,WeatherDisplay:10.37,2013-02-18 13:05:00,
2013-02-18 14:10:00,56.9,49.4,29.86,SSE,152,3.5,3.5,76,0.00,CLR,,0.00,WeatherDisplay:10.37,2013-02-18 13:10:00,
2013-02-18 14:15:00,57.2,49.7,29.86,SSE,167,2.0,2.0,76,0.00,CLR,,0.00,WeatherDisplay:10.37,2013-02-18 13:15:00,
2013-02-18 14:20:00,57.6,49.0,29.86,SSE,151,8.1,8.1,73,0.00,CLR,,0.00,WeatherDisplay:10.37,2013-02-18 13:20:00,
2013-02-18 14:25:00,57.8,48.8,29.86,East,101,6.9,6.9,72,0.00,CLR,,0.00,WeatherDisplay:10.37,2013-02-18 13:25:00,
2013-02-18 14:30:00,58.1,48.4,29.86,SE,128,6.9,6.9,70,0.00,CLR,,0.00,WeatherDisplay:10.37,2013-02-18 13:30:00,
2013-02-18 14:35:00,58.3,48.9,29.86,SSE,160,5.0,5.0,71,0.00,CLR,,0.00,WeatherDisplay:10.37,2013-02-18 13:35:00,
2013-02-18 14:40:00,58.0,49.0,29.86,SE,127,6.0,6.0,72,0.00,CLR,,0.00,WeatherDisplay:10.37,2013-02-18 13:40:00,
2013-02-18 14:45:00,57.8,49.6,29.86,SE,141,9.2,9.2,74,0.00,CLR,,0.00,WeatherDisplay:10.37,2013-02-18 13:45:00,
2013-02-18 14:50:00,57.4,48.8,29.86,SSE,155,8.1,8.1,73,0.00,CLR,,0.00,WeatherDisplay:10.37,2013-02-18 13:50:00,
2013-02-18 14:55:00,57.1,48.9,29.86,SE,143,4.6,4.6,74,0.00,CLR,,0.00,WeatherDisplay:10.37,2013-02-18 13:55:00,
2013-02-18 15:00:00,56.7,48.5,29.86,South,170,4.6,4.6,74,0.00,CLR,,0.00,WeatherDisplay:10.37,2013-02-18 14:00:00,
2013-02-18 15:05:00,56.3,48.5,29.86,SE,142,6.9,6.9,75,0.00,CLR,,0.00,WeatherDisplay:10.37,2013-02-18 14:05:00,
2013-02-18 15:10:00,55.9,48.8,29.87,NE,50,6.0,6.0,77,0.00,CLR,,0.00,WeatherDisplay:10.37,2013-02-18 14:10:00,
2013-02-18 15:15:00,54.5,48.5,29.87,NE,48,11.5,11.5,80,0.00,CLR,,0.00,WeatherDisplay:10.37,2013-02-18 14:15:00,
2013-02-18 15:21:00,53.2,48.5,29.87,North,8,11.5,11.5,84,0.01,RA,,0.02,WeatherDisplay:10.37,2013-02-18 14:21:00,
2013-02-18 15:26:00,52.2,47.8,29.87,ENE,70,11.5,11.5,85,0.04,RA,,0.06,WeatherDisplay:10.37,2013-02-18 14:26:00,
2013-02-18 15:31:00,51.8,48.1,29.87,ENE,57,9.2,9.2,87,0.12,RA,,0.13,WeatherDisplay:10.37,2013-02-18 14:31:00,
2013-02-18 15:36:00,51.8,48.3,29.87,SE,129,4.6,4.6,88,0.17,RA,,0.18,WeatherDisplay:10.37,2013-02-18 14:36:00,
2013-02-18 15:41:00,51.6,48.5,29.88,East,91,2.3,2.3,89,0.21,RA,,0.21,WeatherDisplay:10.37,2013-02-18 14:41:00,
2013-02-18 15:46:00,51.5,48.4,29.88,East,91,0.0,0.0,89,0.22,RA,,0.22,WeatherDisplay:10.37,2013-02-18 14:46:00,
2013-02-18 15:51:00,51.5,48.7,29.88,East,91,0.0,0.0,90,0.23,RA,,0.23,WeatherDisplay:10.37,2013-02-18 14:51:00,
2013-02-18 15:56:00,51.7,48.9,29.88,East,89,0.0,0.0,90,0.25,RA,,0.25,WeatherDisplay:10.37,2013-02-18 14:56:00,
2013-02-18 16:01:00,51.7,48.9,29.88,East,91,0.0,0.0,90,0.28,RA,,0.28,WeatherDisplay:10.37,2013-02-18 15:01:00,
2013-02-18 16:06:00,51.7,48.9,29.88,East,91,0.0,0.0,90,0.29,RA,,0.29,WeatherDisplay:10.37,2013-02-18 15:06:00,
2013-02-18 16:11:00,51.8,49.0,29.88,East,91,0.0,0.0,90,0.30,RA,,0.31,WeatherDisplay:10.37,2013-02-18 15:11:00,
2013-02-18 16:16:00,51.9,49.4,29.88,East,91,0.0,0.0,91,0.31,RA,,0.31,WeatherDisplay:10.37,2013-02-18 15:16:00,
2013-02-18 16:21:00,52.2,49.7,29.88,East,91,0.0,0.0,91,0.32,RA,,0.32,WeatherDisplay:10.37,2013-02-18 15:21:00,
2013-02-18 16:26:00,52.4,49.8,29.88,East,91,0.0,0.0,91,0.31,RA,,0.34,WeatherDisplay:10.37,2013-02-18 15:26:00,
2013-02-18 16:31:00,52.5,49.9,29.88,East,91,0.0,0.0,91,0.25,RA,,0.36,WeatherDisplay:10.37,2013-02-18 15:31:00,
2013-02-18 16:36:00,52.5,49.9,29.88,East,91,0.0,0.0,91,0.20,RA,,0.37,WeatherDisplay:10.37,2013-02-18 15:36:00,
2013-02-18 16:41:00,52.7,50.1,29.88,NNW,347,1.1,1.1,91,0.17,RA,,0.38,WeatherDisplay:10.37,2013-02-18 15:41:00,
2013-02-18 16:46:00,52.4,49.6,29.88,NNW,347,0.0,0.0,90,0.16,RA,,0.38,WeatherDisplay:10.37,2013-02-18 15:46:00,
2013-02-18 16:51:00,52.3,49.8,29.88,NNW,347,0.0,0.0,91,0.16,RA,,0.39,WeatherDisplay:10.37,2013-02-18 15:51:00,
2013-02-18 16:56:00,52.2,49.7,29.88,NNW,347,1.1,1.1,91,0.14,RA,,0.39,WeatherDisplay:10.37,2013-02-18 15:56:00,
2013-02-18 17:01:00,52.2,49.7,29.88,NNW,346,0.0,0.0,91,0.12,RA,,0.39,WeatherDisplay:10.37,2013-02-18 16:01:00,
2013-02-18 17:06:00,52.2,49.7,29.88,NNW,345,0.0,0.0,91,0.10,CLR,,0.39,WeatherDisplay:10.37,2013-02-18 16:06:00,
2013-02-18 17:11:00,52.2,49.7,29.88,NNW,347,0.0,0.0,91,0.09,CLR,,0.39,WeatherDisplay:10.37,2013-02-18 16:11:00,
2013-02-18 17:16:00,52.1,49.6,29.88,North,359,2.3,2.3,91,0.08,CLR,,0.39,WeatherDisplay:10.37,2013-02-18 16:16:00,
2013-02-18 17:22:00,52.1,49.6,29.88,NNW,334,4.0,4.0,91,0.08,RA,,0.40,WeatherDisplay:10.37,2013-02-18 16:22:00,
2013-02-18 17:27:00,52.0,49.5,29.88,NNW,342,3.5,3.5,91,0.06,RA,,0.40,WeatherDisplay:10.37,2013-02-18 16:27:00,
2013-02-18 17:32:00,51.8,49.3,29.88,NNW,343,3.5,3.5,91,0.05,RA,,0.41,WeatherDisplay:10.37,2013-02-18 16:32:00,
2013-02-18 17:37:00,51.5,49.0,29.88,NNW,345,4.6,4.6,91,0.04,RA,,0.41,WeatherDisplay:10.37,2013-02-18 16:37:00,
2013-02-18 17:42:00,51.4,48.9,29.89,NNW,347,4.6,4.6,91,0.03,,,0.41,WeatherDisplay:10.37,2013-02-18 16:42:00,
2013-02-18 17:47:00,51.3,48.8,29.89,North,354,3.5,3.5,91,0.03,CLR,,0.41,WeatherDisplay:10.37,2013-02-18 16:47:00,
2013-02-18 17:52:00,51.3,48.2,29.89,North,4,3.5,3.5,89,0.02,CLR,,0.41,WeatherDisplay:10.37,2013-02-18 16:52:00,
2013-02-18 17:57:00,51.5,48.4,29.89,NNW,345,4.6,4.6,89,0.02,CLR,,0.41,WeatherDisplay:10.37,2013-02-18 16:57:00,
2013-02-18 18:02:00,51.3,47.9,29.89,NNW,335,5.0,5.0,88,0.02,CLR,,0.41,WeatherDisplay:10.37,2013-02-18 17:02:00,
2013-02-18 18:07:00,51.4,48.0,29.89,NNW,327,5.8,5.8,88,0.02,CLR,,0.41,WeatherDisplay:10.37,2013-02-18 17:07:00,
2013-02-18 18:12:00,51.5,48.1,29.89,NNW,336,5.0,5.0,88,0.02,CLR,,0.41,WeatherDisplay:10.37,2013-02-18 17:12:00,
2013-02-18 18:17:00,51.7,48.0,29.89,North,359,5.8,5.8,87,0.02,CLR,,0.41,WeatherDisplay:10.37,2013-02-18 17:17:00,
2013-02-18 18:22:00,51.7,48.3,29.89,North,354,6.0,6.0,88,0.02,CLR,,0.41,WeatherDisplay:10.37,2013-02-18 17:22:00,
2013-02-18 18:27:00,51.7,48.3,29.89,North,349,6.9,6.9,88,0.01,CLR,,0.41,WeatherDisplay:10.37,2013-02-18 17:27:00,
2013-02-18 18:32:00,51.5,48.4,29.89,North,349,5.8,5.8,89,0.01,CLR,,0.41,WeatherDisplay:10.37,2013-02-18 17:32:00,
2013-02-18 18:37:00,51.5,48.1,29.89,NNE,14,6.0,6.0,88,0.00,CLR,,0.41,WeatherDisplay:10.37,2013-02-18 17:37:00,
2013-02-18 18:42:00,51.5,48.1,29.89,NNE,13,6.9,6.9,88,0.00,CLR,,0.41,WeatherDisplay:10.37,2013-02-18 17:42:00,
2013-02-18 18:47:00,51.6,48.2,29.90,North,350,7.0,7.0,88,0.00,CLR,,0.41,WeatherDisplay:10.37,2013-02-18 17:47:00,
2013-02-18 18:52:00,51.6,48.2,29.90,North,349,5.8,5.8,88,0.00,CLR,,0.41,WeatherDisplay:10.37,2013-02-18 17:52:00,
2013-02-18 18:57:00,51.6,47.9,29.90,North,354,5.8,5.8,87,0.00,CLR,,0.41,WeatherDisplay:10.37,2013-02-18 17:57:00,
2013-02-18 19:02:00,51.6,47.5,29.90,North,4,5.8,5.8,86,0.00,CLR,,0.41,WeatherDisplay:10.37,2013-02-18 18:02:00,
2013-02-18 19:07:00,51.8,47.7,29.90,North,4,3.5,3.5,86,0.00,CLR,,0.41,WeatherDisplay:10.37,2013-02-18 18:07:00,
2013-02-18 19:12:00,51.9,48.2,29.90,North,8,5.8,5.8,87,0.00,CLR,,0.41,WeatherDisplay:10.37,2013-02-18 18:12:00,
2013-02-18 19:17:00,52.0,48.3,29.90,NE,39,6.0,6.0,87,0.00,CLR,,0.41,WeatherDisplay:10.37,2013-02-18 18:17:00,
2013-02-18 19:22:00,52.2,48.4,29.90,NE,42,6.9,6.9,87,0.00,CLR,,0.41,WeatherDisplay:10.37,2013-02-18 18:22:00,
2013-02-18 19:27:00,52.2,48.4,29.90,NE,34,6.9,6.9,87,0.00,CLR,,0.41,WeatherDisplay:10.37,2013-02-18 18:27:00,
2013-02-18 19:32:00,52.2,48.4,29.90,NE,41,6.0,6.0,87,0.00,CLR,,0.41,WeatherDisplay:10.37,2013-02-18 18:32:00,
2013-02-18 19:37:00,52.1,48.7,29.90,NNE,29,6.0,6.0,88,0.00,CLR,,0.41,WeatherDisplay:10.37,2013-02-18 18:37:00,
2013-02-18 19:42:00,52.0,48.9,29.90,NE,40,6.9,6.9,89,0.00,CLR,,0.41,WeatherDisplay:10.37,2013-02-18 18:42:00,
2013-02-18 19:47:00,52.1,49.0,29.90,ENE,60,8.0,8.0,89,0.00,CLR,,0.41,WeatherDisplay:10.37,2013-02-18 18:47:00,
2013-02-18 19:52:00,52.2,49.1,29.90,ENE,61,9.2,9.2,89,0.00,CLR,,0.41,WeatherDisplay:10.37,2013-02-18 18:52:00,
2013-02-18 19:57:00,52.3,49.2,29.91,NE,35,5.8,5.8,89,0.00,CLR,,0.41,WeatherDisplay:10.37,2013-02-18 18:57:00,
2013-02-18 20:02:00,52.2,49.1,29.91,NNE,14,4.6,4.6,89,0.00,CLR,,0.41,WeatherDisplay:10.37,2013-02-18 19:02:00,
2013-02-18 20:07:00,52.3,49.2,29.91,ENE,61,8.1,8.1,89,0.00,CLR,,0.41,WeatherDisplay:10.37,2013-02-18 19:07:00,
2013-02-18 20:12:00,52.3,49.2,29.91,NE,48,8.1,8.1,89,0.00,CLR,,0.41,WeatherDisplay:10.37,2013-02-18 19:12:00,
2013-02-18 20:17:00,52.3,49.2,29.91,NE,34,9.2,9.2,89,0.00,CLR,,0.41,WeatherDisplay:10.37,2013-02-18 19:17:00,
2013-02-18 20:22:00,52.2,48.8,29.91,NE,45,8.1,8.1,88,0.00,CLR,,0.41,WeatherDisplay:10.37,2013-02-18 19:22:00,
2013-02-18 20:27:00,52.1,48.3,29.91,NE,35,8.0,8.0,87,0.00,CLR,,0.41,WeatherDisplay:10.37,2013-02-18 19:27:00,
2013-02-18 20:32:00,52.2,47.8,29.91,ENE,59,9.0,9.0,85,0.00,CLR,,0.41,WeatherDisplay:10.37,2013-02-18 19:32:00,
2013-02-18 20:38:00,52.4,48.0,29.91,NE,54,8.1,8.1,85,0.00,CLR,,0.41,WeatherDisplay:10.37,2013-02-18 19:38:00,
2013-02-18 20:43:00,52.4,48.0,29.91,NE,41,6.9,6.9,85,0.00,CLR,,0.41,WeatherDisplay:10.37,2013-02-18 19:43:00,
2013-02-18 20:48:00,52.5,47.8,29.91,NE,37,4.6,5.0,84,0.00,CLR,,0.41,WeatherDisplay:10.37,2013-02-18 19:48:00,
2013-02-18 20:53:00,52.5,48.1,29.91,ENE,60,6.0,6.0,85,0.00,CLR,,0.41,WeatherDisplay:10.37,2013-02-18 19:53:00,
2013-02-18 20:58:00,52.5,48.1,29.91,NE,43,5.8,5.8,85,0.00,CLR,,0.41,WeatherDisplay:10.37,2013-02-18 19:58:00,
2013-02-18 21:03:00,52.5,48.1,29.92,NE,46,4.0,4.0,85,0.00,CLR,,0.41,WeatherDisplay:10.37,2013-02-18 20:03:00,
2013-02-18 21:08:00,52.5,48.1,29.92,NNE,33,5.0,5.0,85,0.00,CLR,,0.41,WeatherDisplay:10.37,2013-02-18 20:08:00,
2013-02-18 21:13:00,52.5,48.4,29.92,NNE,21,5.0,5.0,86,0.00,CLR,,0.41,WeatherDisplay:10.37,2013-02-18 20:13:00,
2013-02-18 21:18:00,52.6,48.5,29.92,North,8,6.0,6.0,86,0.00,CLR,,0.41,WeatherDisplay:10.37,2013-02-18 20:18:00,
2013-02-18 21:23:00,52.8,48.4,29.92,North,359,7.0,7.0,85,0.00,CLR,,0.41,WeatherDisplay:10.37,2013-02-18 20:23:00,
2013-02-18 21:28:00,52.8,48.4,29.93,NNW,346,5.8,5.8,85,0.00,CLR,,0.41,WeatherDisplay:10.37,2013-02-18 20:28:00,
2013-02-18 21:33:00,52.8,48.1,29.93,North,349,4.6,4.6,84,0.00,CLR,,0.41,WeatherDisplay:10.37,2013-02-18 20:33:00,
2013-02-18 21:38:00,53.0,48.0,29.93,North,359,5.8,5.8,83,0.00,CLR,,0.41,WeatherDisplay:10.37,2013-02-18 20:38:00,
2013-02-18 21:43:00,52.9,48.2,29.93,North,359,5.8,5.8,84,0.00,CLR,,0.41,WeatherDisplay:10.37,2013-02-18 20:43:00,
2013-02-18 21:49:00,52.9,47.9,29.93,NNE,22,4.0,4.1,83,0.00,CLR,,0.41,WeatherDisplay:10.37,2013-02-18 20:49:00,
2013-02-18 21:54:00,53.0,48.0,29.93,NNE,18,4.6,4.6,83,0.00,CLR,,0.41,WeatherDisplay:10.37,2013-02-18 20:54:00,
2013-02-18 21:59:00,53.0,48.3,29.93,NE,34,5.0,5.0,84,0.00,CLR,,0.41,WeatherDisplay:10.37,2013-02-18 20:59:00,
2013-02-18 22:04:00,52.9,48.2,29.93,NNE,26,4.6,4.6,84,0.00,CLR,,0.41,WeatherDisplay:10.37,2013-02-18 21:04:00,
2013-02-18 22:09:00,52.8,48.1,29.93,North,359,4.6,4.6,84,0.00,CLR,,0.41,WeatherDisplay:10.37,2013-02-18 21:09:00,
2013-02-18 22:14:00,52.7,48.0,29.93,NNE,23,4.6,4.6,84,0.00,CLR,,0.41,WeatherDisplay:10.37,2013-02-18 21:14:00,
2013-02-18 22:19:00,52.7,48.0,29.93,NE,39,5.0,5.0,84,0.00,CLR,,0.41,WeatherDisplay:10.37,2013-02-18 21:19:00,
2013-02-18 22:24:00,52.9,47.9,29.93,NE,41,7.0,7.0,83,0.00,CLR,,0.41,WeatherDisplay:10.37,2013-02-18 21:24:00,
2013-02-18 22:29:00,52.9,47.6,29.93,NE,53,6.9,6.9,82,0.00,CLR,,0.41,WeatherDisplay:10.37,2013-02-18 21:29:00,
2013-02-18 22:34:00,52.9,47.6,29.93,NNE,29,6.9,6.9,82,0.00,CLR,,0.41,WeatherDisplay:10.37,2013-02-18 21:34:00,
2013-02-18 22:39:00,52.9,47.6,29.93,NE,50,8.1,8.1,82,0.00,CLR,,0.41,WeatherDisplay:10.37,2013-02-18 21:39:00,
2013-02-18 22:44:00,52.8,47.5,29.92,ENE,62,10.4,10.4,82,0.00,CLR,,0.41,WeatherDisplay:10.37,2013-02-18 21:44:00,
2013-02-18 22:49:00,52.7,47.7,29.92,NE,56,9.2,9.2,83,0.00,CLR,,0.41,WeatherDisplay:10.37,2013-02-18 21:49:00,
2013-02-18 22:54:00,52.6,47.9,29.92,NNE,30,11.5,11.5,84,0.00,CLR,,0.41,WeatherDisplay:10.37,2013-02-18 21:54:00,
2013-02-18 22:59:00,52.4,48.0,29.93,NE,38,10.4,10.4,85,0.00,CLR,,0.41,WeatherDisplay:10.37,2013-02-18 21:59:00,
2013-02-18 23:04:00,52.4,48.3,29.92,NE,49,13.8,13.8,86,0.00,CLR,,0.41,WeatherDisplay:10.37,2013-02-18 22:04:00,
2013-02-18 23:09:00,52.3,48.2,29.92,NE,48,12.0,12.0,86,0.00,CLR,,0.41,WeatherDisplay:10.37,2013-02-18 22:09:00,
2013-02-18 23:14:00,52.2,48.1,29.92,NNE,17,11.5,11.5,86,0.00,CLR,,0.41,WeatherDisplay:10.37,2013-02-18 22:14:00,
2013-02-18 23:19:00,52.2,48.4,29.92,NE,34,11.5,11.5,87,0.00,CLR,,0.41,WeatherDisplay:10.37,2013-02-18 22:19:00,
2013-02-18 23:24:00,52.2,48.8,29.92,NE,42,11.5,11.5,88,0.00,CLR,,0.41,WeatherDisplay:10.37,2013-02-18 22:24:00,
2013-02-18 23:29:00,52.2,48.8,29.92,ENE,62,11.5,11.5,88,0.00,CLR,,0.41,WeatherDisplay:10.37,2013-02-18 22:29:00,
2013-02-18 23:34:00,52.3,49.2,29.92,NE,37,11.0,11.0,89,0.00,CLR,,0.41,WeatherDisplay:10.37,2013-02-18 22:34:00,
2013-02-18 23:39:00,52.2,49.1,29.92,NNE,33,12.0,12.0,89,0.00,CLR,,0.41,WeatherDisplay:10.37,2013-02-18 22:39:00,
2013-02-18 23:44:00,52.2,49.1,29.92,NE,47,13.0,13.0,89,0.00,CLR,,0.41,WeatherDisplay:10.37,2013-02-18 22:44:00,
2013-02-18 23:49:00,52.2,49.1,29.92,NE,51,12.7,12.7,89,0.00,CLR,,0.41,WeatherDisplay:10.37,2013-02-18 22:49:00,
2013-02-18 23:54:00,52.0,48.9,29.92,NNE,27,11.5,11.5,89,0.00,CLR,,0.41,WeatherDisplay:10.37,2013-02-18 22:54:00,
2013-02-18 23:59:00,51.8,49.0,29.92,NE,46,16.0,16.0,90,0.00,CLR,,0.41,WeatherDisplay:10.37,2013-02-18 22:59:00,